Time;durP1;ratioP1;P1;durP2;ratioP2;P2;SDS_P1;SDS_P2;PMS_P1;PMS_P2;Temp;Humidity;BMP_temperature;BMP_pressure;BME280_temperature;BME280_humidity;BME280_pressure;Samples;Min_cycle;Max_cycle;Signal;HPM_P1;HPM_P2
2022/03/21 00:01:11;;;;;;;42.17;34.13;;;5.20;66.70;;;;;;6190492;23;20070;-85
2022/03/21 00:03:37;;;;;;;42.80;32.65;;;5.20;67.10;;;;;;6190061;23;20444;-85
2022/03/21 00:06:03;;;;;;;43.00;32.90;;;5.10;67.10;;;;;;6190440;23;20028;-85
2022/03/21 00:08:44;;;;;;;50.72;38.67;;;5.10;67.30;;;;;;6190315;23;20016;-84
2022/03/21 00:11:11;;;;;;;48.00;36.67;;;5.10;67.40;;;;;;6190311;23;20013;-85
2022/03/21 00:13:38;;;;;;;55.05;40.45;;;5.10;67.40;;;;;;6190025;23;20024;-84
2022/03/21 00:16:04;;;;;;;52.88;40.50;;;5.10;67.60;;;;;;6190416;23;20021;-85
2022/03/21 00:18:30;;;;;;;58.70;43.53;;;5.10;67.80;;;;;;6217378;23;20016;-85
2022/03/21 00:20:56;;;;;;;56.90;43.42;;;5.00;67.80;;;;;;6190405;23;20019;-84
2022/03/21 00:23:26;;;;;;;57.53;42.05;;;5.00;68.20;;;;;;6165389;23;20024;-85
2022/03/21 00:25:53;;;;;;;56.97;42.13;;;4.90;68.30;;;;;;6184743;23;20017;-85
2022/03/21 00:28:18;;;;;;;50.78;37.50;;;4.90;68.40;;;;;;6186949;23;20024;-85
2022/03/21 00:30:45;;;;;;;51.97;36.55;;;4.90;68.70;;;;;;6186588;23;20430;-85
2022/03/21 00:33:11;;;;;;;46.20;35.55;;;4.80;68.80;;;;;;6186918;23;20449;-85
2022/03/21 00:35:37;;;;;;;49.65;37.55;;;4.80;68.90;;;;;;6160118;23;20077;-85
2022/03/21 00:38:04;;;;;;;43.78;33.38;;;4.80;69.00;;;;;;6186985;23;20017;-85
2022/03/21 00:40:29;;;;;;;47.65;36.55;;;4.80;68.90;;;;;;6185163;23;20017;-86
2022/03/21 00:42:56;;;;;;;55.03;41.20;;;4.80;68.90;;;;;;6186974;23;20128;-85
2022/03/21 00:45:25;;;;;;;58.20;41.42;;;4.80;68.80;;;;;;6187650;23;20060;-85
2022/03/21 00:47:52;;;;;;;46.05;34.65;;;4.80;68.70;;;;;;6188362;23;20100;-85
2022/03/21 00:50:19;;;;;;;49.65;38.03;;;4.80;69.10;;;;;;6208253;23;20001;-85
2022/03/21 00:52:51;;;;;;;45.08;34.03;;;4.80;68.80;;;;;;6211521;23;20012;-85
2022/03/21 00:55:20;;;;;;;48.95;35.63;;;4.80;68.80;;;;;;6202126;23;20048;-85
2022/03/21 00:57:46;;;;;;;45.17;35.25;;;4.80;68.80;;;;;;6188374;23;20017;-85
2022/03/21 01:00:18;;;;;;;49.17;36.53;;;4.80;68.70;;;;;;6187428;23;20044;-85
2022/03/21 01:02:44;;;;;;;46.25;34.33;;;4.80;68.60;;;;;;6187081;23;20342;-84
2022/03/21 01:05:11;;;;;;;48.17;34.90;;;4.80;68.50;;;;;;6184915;23;20021;-85
2022/03/21 01:07:38;;;;;;;52.55;38.65;;;4.80;68.40;;;;;;6184512;23;20013;-84
2022/03/21 01:10:06;;;;;;;47.83;37.33;;;4.80;68.30;;;;;;6184630;23;20488;-85
2022/03/21 01:12:32;;;;;;;52.13;39.25;;;4.80;68.20;;;;;;6185012;23;20021;-85
2022/03/21 01:14:58;;;;;;;60.35;42.17;;;4.80;68.20;;;;;;6186108;23;20319;-84
2022/03/21 01:17:23;;;;;;;45.83;35.40;;;4.80;68.20;;;;;;6186972;23;20017;-85
2022/03/21 01:19:49;;;;;;;43.78;33.80;;;4.80;68.30;;;;;;6186206;23;20326;-85
2022/03/21 01:22:15;;;;;;;46.65;34.25;;;4.80;68.80;;;;;;6185069;23;20457;-85
2022/03/21 01:24:41;;;;;;;43.63;34.47;;;4.70;68.40;;;;;;6186446;23;20105;-85
2022/03/21 01:27:07;;;;;;;52.42;36.97;;;4.80;68.50;;;;;;6184334;23;20426;-85
2022/03/21 01:29:34;;;;;;;44.72;34.85;;;4.80;68.30;;;;;;6184294;23;20083;-85
2022/03/21 01:32:00;;;;;;;50.75;36.22;;;4.70;68.00;;;;;;6184405;23;20496;-85
2022/03/21 01:34:26;;;;;;;51.83;36.72;;;4.70;67.90;;;;;;6184524;23;20360;-85
2022/03/21 01:36:52;;;;;;;47.45;34.83;;;4.70;67.90;;;;;;6184664;23;20021;-85
2022/03/21 01:39:19;;;;;;;53.00;37.83;;;4.70;67.90;;;;;;6186398;23;20375;-84
2022/03/21 01:41:45;;;;;;;52.78;39.53;;;4.70;67.90;;;;;;6185633;23;20021;-85
2022/03/21 01:44:11;;;;;;;62.60;44.60;;;4.70;67.80;;;;;;6184592;23;20442;-85
2022/03/21 01:46:38;;;;;;;64.55;44.38;;;4.70;67.90;;;;;;6184509;23;20017;-84
2022/03/21 01:49:06;;;;;;;61.35;43.42;;;4.60;68.10;;;;;;6184133;23;20025;-84
2022/03/21 01:51:32;;;;;;;54.00;40.60;;;4.90;68.50;;;;;;6185884;23;20088;-85
2022/03/21 01:56:45;;;;;;;52.00;37.15;;;4.50;68.90;;;;;;6184719;23;20025;-85
2022/03/21 01:59:12;;;;;;;47.78;36.17;;;4.50;69.10;;;;;;6184582;23;20013;-85
2022/03/21 02:01:39;;;;;;;49.40;37.58;;;4.40;69.10;;;;;;6186412;23;20013;-85
2022/03/21 02:04:05;;;;;;;44.63;34.97;;;4.50;69.20;;;;;;6185970;23;20017;-85
2022/03/21 02:06:31;;;;;;;49.25;36.63;;;4.50;69.10;;;;;;6184774;23;20025;-86
2022/03/21 02:09:02;;;;;;;48.95;36.75;;;4.40;68.90;;;;;;6185715;23;20017;-85
2022/03/21 02:11:29;;;;;;;46.33;35.30;;;4.40;68.80;;;;;;6184107;23;20024;-85
2022/03/21 02:13:59;;;;;;;45.70;34.58;;;4.40;68.80;;;;;;6184075;23;20071;-84
2022/03/21 02:16:26;;;;;;;46.85;34.50;;;4.50;68.80;;;;;;6184449;23;20024;-85
2022/03/21 02:18:52;;;;;;;45.83;33.85;;;4.50;68.70;;;;;;6186309;23;20021;-85
2022/03/21 02:21:36;;;;;;;42.03;32.58;;;4.40;68.50;;;;;;6185923;23;20017;-85
2022/03/21 02:24:09;;;;;;;52.10;37.97;;;4.50;68.60;;;;;;6188097;23;20059;-85
2022/03/21 02:26:35;;;;;;;46.60;34.75;;;4.50;68.40;;;;;;6187551;23;20025;-85
2022/03/21 02:29:03;;;;;;;46.33;33.65;;;4.50;68.30;;;;;;6188014;23;20063;-85
2022/03/21 02:31:28;;;;;;;45.50;34.05;;;4.50;68.20;;;;;;6187937;23;20024;-85
2022/03/21 02:33:55;;;;;;;44.55;33.22;;;4.60;68.20;;;;;;6161099;23;20322;-85
2022/03/21 02:36:21;;;;;;;46.78;35.30;;;4.60;68.10;;;;;;6185165;23;20017;-85
2022/03/21 02:38:48;;;;;;;43.45;32.58;;;4.60;68.10;;;;;;6188239;23;20009;-85
2022/03/21 02:41:15;;;;;;;42.47;32.45;;;4.60;68.10;;;;;;6185416;23;20048;-85
2022/03/21 02:43:58;;;;;;;41.38;31.83;;;4.60;67.90;;;;;;6187832;23;20445;-85
2022/03/21 02:46:25;;;;;;;48.58;35.35;;;4.60;67.80;;;;;;6185982;23;20397;-85
2022/03/21 02:48:54;;;;;;;46.45;34.97;;;4.60;67.80;;;;;;6188721;23;20013;-84
2022/03/21 02:51:20;;;;;;;44.63;33.50;;;4.60;67.60;;;;;;6189100;23;20021;-85
2022/03/21 02:53:48;;;;;;;48.53;35.30;;;4.60;67.90;;;;;;6187879;23;20017;-85
2022/03/21 02:56:14;;;;;;;47.10;34.50;;;4.60;67.20;;;;;;6185523;23;20096;-85
2022/03/21 02:58:40;;;;;;;58.70;40.53;;;4.60;67.20;;;;;;6187467;23;20045;-85
2022/03/21 03:01:16;;;;;;;54.95;40.33;;;4.60;67.30;;;;;;6160970;23;20422;-84
2022/03/21 03:03:42;;;;;;;53.58;38.47;;;4.60;67.30;;;;;;6185834;23;20027;-85
2022/03/21 03:06:09;;;;;;;50.10;35.47;;;4.60;67.30;;;;;;6187581;23;20009;-85
2022/03/21 03:08:36;;;;;;;45.83;34.72;;;4.50;67.40;;;;;;6187895;23;20056;-85
2022/03/21 03:11:02;;;;;;;44.97;33.63;;;4.50;67.60;;;;;;6186950;23;20464;-85
2022/03/21 03:13:28;;;;;;;44.03;33.75;;;4.50;67.70;;;;;;6185701;23;20017;-85
2022/03/21 03:15:54;;;;;;;45.00;34.60;;;4.50;67.70;;;;;;6187576;23;20028;-85
2022/03/21 03:18:20;;;;;;;50.15;36.58;;;4.50;67.80;;;;;;6187832;23;20013;-85
2022/03/21 03:20:54;;;;;;;51.17;36.97;;;4.50;67.80;;;;;;6185358;23;20025;-85
2022/03/21 03:23:24;;;;;;;;;;;4.50;68.00;;;;;;6187939;23;20017;-84
2022/03/21 03:26:01;;;;;;;49.13;34.15;;;4.40;67.90;;;;;;6185332;23;19916;-85
2022/03/21 03:28:27;;;;;;;47.92;34.28;;;4.40;68.00;;;;;;6187639;23;20064;-85
2022/03/21 03:30:53;;;;;;;47.10;34.22;;;4.40;68.10;;;;;;6184730;23;20023;-84
2022/03/21 03:33:19;;;;;;;49.10;34.85;;;4.40;68.20;;;;;;6185442;23;20032;-85
2022/03/21 03:35:46;;;;;;;45.47;33.45;;;4.40;68.20;;;;;;6185444;23;20017;-85
2022/03/21 03:38:12;;;;;;;48.63;34.50;;;4.40;68.20;;;;;;6187115;23;20048;-85
2022/03/21 03:40:37;;;;;;;44.55;32.40;;;4.50;68.30;;;;;;6186958;23;20500;-84
2022/03/21 03:43:03;;;;;;;44.95;32.33;;;4.40;68.30;;;;;;6185523;23;20434;-84
2022/03/21 03:45:29;;;;;;;42.42;32.22;;;4.40;68.30;;;;;;6187525;23;20497;-85
2022/03/21 03:47:55;;;;;;;43.38;32.22;;;4.40;68.20;;;;;;6184602;23;20017;-84
2022/03/21 03:50:21;;;;;;;42.58;31.08;;;4.50;68.20;;;;;;6185254;23;20028;-84
2022/03/21 03:52:47;;;;;;;44.63;31.30;;;4.50;68.10;;;;;;6187324;23;20020;-84
2022/03/21 03:55:19;;;;;;;44.58;32.10;;;4.50;68.00;;;;;;6187156;23;20013;-85
2022/03/21 03:57:46;;;;;;;41.72;29.92;;;4.50;68.00;;;;;;6186928;23;20009;-84
2022/03/21 04:00:14;;;;;;;41.55;32.03;;;4.50;67.90;;;;;;6186595;23;20063;-85
2022/03/21 04:05:25;;;;;;;42.85;29.23;;;4.50;67.80;;;;;;6186865;23;20334;-85
2022/03/21 04:07:52;;;;;;;41.50;30.00;;;4.50;67.70;;;;;;6161196;23;20024;-85
2022/03/21 04:10:20;;;;;;;39.20;29.55;;;4.50;67.60;;;;;;6185182;23;20039;-85
2022/03/21 04:12:48;;;;;;;43.40;30.35;;;4.50;67.50;;;;;;6184790;23;20021;-85
2022/03/21 04:15:14;;;;;;;36.60;27.48;;;4.60;67.50;;;;;;6186949;23;20078;-85
2022/03/21 04:17:40;;;;;;;36.47;27.77;;;4.60;67.40;;;;;;6184880;23;20104;-84
2022/03/21 04:20:07;;;;;;;38.38;27.92;;;4.60;67.30;;;;;;6185028;23;20044;-85
2022/03/21 04:22:37;;;;;;;41.30;29.00;;;4.60;67.30;;;;;;6186891;23;20017;-85
2022/03/21 04:25:09;;;;;;;34.78;26.85;;;4.60;67.30;;;;;;6186776;23;20304;-85
2022/03/21 04:27:35;;;;;;;38.33;29.00;;;4.60;67.20;;;;;;6184347;23;20071;-85
2022/03/21 04:30:01;;;;;;;35.85;26.50;;;4.60;67.10;;;;;;6185004;23;20432;-83
2022/03/21 04:32:27;;;;;;;36.63;27.27;;;4.60;66.90;;;;;;6186698;23;20017;-84
2022/03/21 04:34:53;;;;;;;35.47;26.50;;;4.60;66.90;;;;;;6185007;23;20036;-85
2022/03/21 04:37:19;;;;;;;37.45;27.08;;;4.60;66.80;;;;;;6184528;23;20438;-84
2022/03/21 04:39:45;;;;;;;34.58;26.77;;;4.60;66.70;;;;;;6186783;23;20009;-84
2022/03/21 04:42:11;;;;;;;35.70;27.50;;;4.60;66.70;;;;;;6186170;23;20430;-85
2022/03/21 04:44:39;;;;;;;35.45;26.38;;;4.60;66.60;;;;;;6186836;23;20088;-84
2022/03/21 04:47:08;;;;;;;33.42;26.23;;;4.60;66.50;;;;;;6186080;23;20024;-85
2022/03/21 04:49:34;;;;;;;35.10;25.58;;;4.60;66.50;;;;;;6184509;23;20017;-85
2022/03/21 04:52:00;;;;;;;35.10;26.55;;;4.60;66.40;;;;;;6184447;23;20111;-85
2022/03/21 04:54:28;;;;;;;34.40;26.40;;;4.60;66.30;;;;;;6185003;23;20024;-84
2022/03/21 04:56:54;;;;;;;37.40;25.13;;;4.50;66.20;;;;;;6184445;23;20017;-84
2022/03/21 04:59:20;;;;;;;34.47;25.25;;;4.50;66.10;;;;;;6184424;23;20013;-84
2022/03/21 05:01:47;;;;;;;33.08;24.40;;;4.50;66.10;;;;;;6184720;23;20013;-84
2022/03/21 05:04:12;;;;;;;28.98;21.65;;;4.50;66.00;;;;;;6186263;23;20483;-84
2022/03/21 05:06:39;;;;;;;32.35;24.92;;;4.50;66.00;;;;;;6184584;23;20048;-84
2022/03/21 05:09:05;;;;;;;33.97;25.05;;;4.50;65.90;;;;;;6184081;23;20048;-84
2022/03/21 05:11:31;;;;;;;29.88;23.77;;;4.50;66.00;;;;;;6184373;23;20021;-84
2022/03/21 05:13:57;;;;;;;31.63;23.75;;;4.50;66.00;;;;;;6186488;23;20299;-84
2022/03/21 05:16:23;;;;;;;31.38;23.30;;;4.40;65.90;;;;;;6185175;23;20020;-84
2022/03/21 05:18:50;;;;;;;33.92;24.80;;;4.40;65.90;;;;;;6186324;23;20024;-84
2022/03/21 05:21:16;;;;;;;30.40;22.65;;;4.40;65.90;;;;;;6184629;23;20063;-85
2022/03/21 05:31:55;;;;;;;29.50;22.40;;;4.30;66.00;;;;;;6212413;23;20013;-83
2022/03/21 05:37:05;;;;;;;30.20;22.52;;;4.30;66.00;;;;;;6194646;23;20021;-85
2022/03/21 05:39:31;;;;;;;26.67;20.55;;;4.30;66.00;;;;;;6186855;23;20024;-84
2022/03/21 05:41:57;;;;;;;22.52;17.77;;;4.30;66.00;;;;;;6184468;23;20020;-84
2022/03/21 05:44:24;;;;;;;27.08;21.20;;;4.20;66.00;;;;;;6186428;23;20045;-85
2022/03/21 05:46:50;;;;;;;26.40;20.42;;;4.20;65.90;;;;;;6186560;23;20073;-84
2022/03/21 05:49:16;;;;;;;25.70;20.30;;;4.20;65.90;;;;;;6186382;23;20016;-85
2022/03/21 05:51:42;;;;;;;26.10;20.52;;;4.30;66.00;;;;;;6186216;23;20048;-85
2022/03/21 05:54:10;;;;;;;28.33;21.10;;;4.20;65.90;;;;;;6186164;23;20048;-85
2022/03/21 05:56:37;;;;;;;27.27;20.92;;;4.20;65.90;;;;;;6186670;23;20024;-85
2022/03/21 06:01:49;;;;;;;27.00;21.15;;;4.20;65.70;;;;;;6187692;23;20028;-85
2022/03/21 06:04:15;;;;;;;28.67;22.13;;;4.10;65.20;;;;;;6188304;23;20449;-85
2022/03/21 06:06:42;;;;;;;32.53;24.40;;;4.20;65.30;;;;;;6186330;23;20020;-86
2022/03/21 06:09:07;;;;;;;29.48;23.33;;;4.10;65.20;;;;;;6186304;23;20450;-85
2022/03/21 06:11:34;;;;;;;30.23;23.73;;;4.00;65.20;;;;;;6186149;23;20100;-85
2022/03/21 06:14:00;;;;;;;29.50;22.23;;;4.00;65.30;;;;;;6186276;23;20017;-85
2022/03/21 06:16:26;;;;;;;30.92;24.23;;;4.00;65.50;;;;;;6185767;23;20024;-85
2022/03/21 06:18:51;;;;;;;30.98;22.70;;;4.00;65.50;;;;;;6186426;23;20017;-85
2022/03/21 06:21:17;;;;;;;26.00;21.45;;;4.00;65.20;;;;;;6188077;23;20056;-86
2022/03/21 06:23:43;;;;;;;29.63;24.45;;;3.90;65.20;;;;;;6186379;23;20020;-85
2022/03/21 06:26:09;;;;;;;33.00;23.33;;;3.90;65.30;;;;;;6187849;23;20020;-84
2022/03/21 06:28:36;;;;;;;30.30;23.15;;;3.90;65.50;;;;;;6187965;23;20025;-87
2022/03/21 06:31:02;;;;;;;25.02;20.20;;;3.90;65.70;;;;;;6185402;23;20043;-85
2022/03/21 06:33:30;;;;;;;26.65;21.63;;;3.90;65.70;;;;;;6185988;23;20017;-85
2022/03/21 06:35:57;;;;;;;27.10;21.23;;;4.00;65.80;;;;;;6185798;23;20013;-86
2022/03/21 06:38:23;;;;;;;27.80;22.13;;;3.90;65.70;;;;;;6188167;23;20092;-85
2022/03/21 06:40:49;;;;;;;24.00;20.38;;;3.90;65.80;;;;;;6185024;23;20024;-86
2022/03/21 06:43:15;;;;;;;20.58;18.15;;;3.90;65.80;;;;;;6187893;23;20009;-85
2022/03/21 06:45:42;;;;;;;22.08;18.00;;;4.10;66.00;;;;;;6185736;23;20084;-86
2022/03/21 06:48:09;;;;;;;22.98;18.13;;;3.90;66.00;;;;;;6186232;23;20013;-87
2022/03/21 06:50:35;;;;;;;21.35;17.98;;;3.90;66.40;;;;;;6185475;23;20021;-86
2022/03/21 06:53:00;;;;;;;21.30;17.50;;;3.90;66.50;;;;;;6184752;23;20021;-86
2022/03/21 06:55:26;;;;;;;19.63;17.25;;;3.90;66.70;;;;;;6186199;23;20017;-85
2022/03/21 06:57:52;;;;;;;18.95;16.95;;;4.00;66.90;;;;;;6187554;23;20021;-86
2022/03/21 07:00:18;;;;;;;17.73;15.82;;;4.00;67.00;;;;;;6188186;23;20017;-87
2022/03/21 07:02:44;;;;;;;16.92;15.13;;;4.00;67.00;;;;;;6161172;23;20334;-87
2022/03/21 07:05:11;;;;;;;17.50;15.40;;;4.00;67.00;;;;;;6187934;23;20017;-86
2022/03/21 07:07:37;;;;;;;17.55;15.35;;;4.00;67.20;;;;;;6185841;23;20016;-86
2022/03/21 07:10:06;;;;;;;16.02;14.30;;;4.10;67.50;;;;;;6188191;23;20108;-87
2022/03/21 07:12:34;;;;;;;16.67;14.93;;;4.10;67.80;;;;;;6187549;23;20017;-87
2022/03/21 07:15:04;;;;;;;16.45;14.65;;;4.10;67.90;;;;;;6186446;23;20044;-88
2022/03/21 07:17:29;;;;;;;16.50;14.70;;;4.20;68.30;;;;;;6188952;23;20028;-88
2022/03/21 07:19:55;;;;;;;16.20;14.60;;;4.30;69.00;;;;;;6185952;23;20012;-89
2022/03/21 07:22:21;;;;;;;17.73;14.77;;;4.40;69.10;;;;;;6188226;23;20135;-87
2022/03/21 07:24:46;;;;;;;16.02;14.07;;;4.60;69.30;;;;;;6186227;23;20569;-88
2022/03/21 07:27:12;;;;;;;18.33;15.48;;;4.60;69.50;;;;;;6187713;23;20024;-87
2022/03/21 07:29:38;;;;;;;17.63;15.73;;;4.70;69.90;;;;;;6186050;23;20023;-87
2022/03/21 07:32:04;;;;;;;19.65;17.08;;;4.80;70.10;;;;;;6188093;23;20055;-88
2022/03/21 07:34:30;;;;;;;19.27;17.15;;;5.00;70.40;;;;;;6187708;23;20465;-87
2022/03/21 07:36:56;;;;;;;22.75;18.65;;;5.20;71.00;;;;;;6186193;23;20021;-87
2022/03/21 07:39:22;;;;;;;25.70;19.83;;;5.30;71.20;;;;;;6161166;23;20044;-87
2022/03/21 07:42:44;;;;;;;25.98;21.73;;;5.50;71.30;;;;;;6185651;23;20068;-88
2022/03/21 07:47:55;;;;;;;27.38;20.52;;;5.90;71.20;;;;;;6188504;23;20065;-88
2022/03/21 07:50:23;;;;;;;25.00;20.40;;;6.10;71.50;;;;;;6185903;23;20013;-87
2022/03/21 07:52:50;;;;;;;26.77;20.38;;;6.30;71.80;;;;;;6136910;23;20064;-88
2022/03/21 07:55:16;;;;;;;24.77;19.27;;;6.80;72.30;;;;;;6185978;23;20019;-89
2022/03/21 08:01:07;;;;;;;28.85;22.35;;;6.90;72.00;;;;;;6186767;23;20017;-88
2022/03/21 08:03:33;;;;;;;29.00;22.13;;;7.30;71.90;;;;;;6187799;23;20374;-89
2022/03/21 08:05:59;;;;;;;29.75;22.25;;;7.50;71.80;;;;;;6188392;23;20019;-88
2022/03/21 08:08:26;;;;;;;27.65;22.20;;;7.70;71.70;;;;;;6188415;23;20092;-89
2022/03/21 08:11:48;;;;;;;29.23;21.65;;;7.90;71.50;;;;;;6186036;23;20059;-88
2022/03/21 08:14:14;;;;;;;27.75;20.65;;;8.20;71.30;;;;;;6186342;23;20021;-89
2022/03/21 08:16:40;;;;;;;29.77;20.42;;;8.40;70.80;;;;;;6187807;23;20019;-88
2022/03/21 08:19:06;;;;;;;27.38;21.13;;;8.60;70.80;;;;;;6187906;23;20020;-89
2022/03/21 08:21:32;;;;;;;28.75;20.92;;;8.90;70.20;;;;;;6186118;23;20028;-89
2022/03/21 08:23:58;;;;;;;31.02;20.88;;;9.10;69.80;;;;;;6186411;23;20013;-89
2022/03/21 08:27:08;;;;;;;26.95;20.05;;;9.30;69.10;;;;;;6160421;23;20508;-90
2022/03/21 08:29:34;;;;;;;27.90;19.90;;;9.50;68.50;;;;;;6161094;23;20032;-88
2022/03/21 08:32:00;;;;;;;26.30;19.10;;;9.80;68.30;;;;;;6186434;23;20017;-89
2022/03/21 08:34:26;;;;;;;27.00;18.90;;;10.10;67.70;;;;;;6188142;23;20075;-92
2022/03/21 08:36:51;;;;;;;25.20;18.83;;;10.10;66.90;;;;;;6187026;23;20449;-91
2022/03/21 08:39:17;;;;;;;25.67;18.63;;;10.40;66.50;;;;;;6188234;23;20085;-91
2022/03/21 08:41:43;;;;;;;24.70;19.20;;;10.60;65.90;;;;;;6186060;23;20024;-90
2022/03/21 08:44:08;;;;;;;23.23;18.00;;;10.90;65.70;;;;;;6187876;23;20329;-90
2022/03/21 08:46:34;;;;;;;24.25;18.15;;;11.10;64.40;;;;;;6161607;23;20024;-90
2022/03/21 08:51:46;;;;;;;24.23;19.00;;;11.60;64.20;;;;;;6188423;23;20060;-91
2022/03/21 08:54:13;;;;;;;25.25;18.02;;;12.00;63.60;;;;;;6186929;23;20024;-90
2022/03/21 08:56:39;;;;;;;21.10;17.23;;;12.30;62.50;;;;;;6165421;23;20071;-91
2022/03/21 08:59:06;;;;;;;22.42;16.45;;;12.60;61.60;;;;;;6194828;23;20144;-91
2022/03/21 09:01:32;;;;;;;21.63;17.13;;;12.80;60.30;;;;;;6195707;23;20021;-91
2022/03/21 09:04:01;;;;;;;20.02;16.35;;;13.00;59.80;;;;;;6194045;23;20337;-92
2022/03/21 09:06:28;;;;;;;22.90;16.95;;;13.20;59.20;;;;;;6193074;23;20020;-91
2022/03/21 09:08:54;;;;;;;24.15;18.42;;;13.30;58.30;;;;;;6172017;23;20045;-92
2022/03/21 09:11:20;;;;;;;20.67;16.90;;;13.50;58.10;;;;;;6204446;23;20043;-93
2022/03/21 09:13:49;;;;;;;20.30;16.00;;;13.70;58.20;;;;;;6183531;23;20001;-92
2022/03/21 09:16:16;;;;;;;22.88;17.38;;;14.00;57.60;;;;;;6208226;23;20020;-92
2022/03/21 09:18:42;;;;;;;21.10;15.55;;;14.10;56.90;;;;;;6209303;23;20017;-92
2022/03/21 09:21:09;;;;;;;21.65;16.90;;;14.20;55.90;;;;;;6198817;23;20017;-93
2022/03/21 09:23:35;;;;;;;23.15;17.10;;;14.40;55.90;;;;;;6190627;23;20021;-94
2022/03/21 09:26:02;;;;;;;20.35;16.40;;;14.30;55.20;;;;;;6205235;23;20001;-93
2022/03/21 09:28:29;;;;;;;27.58;17.38;;;14.20;54.80;;;;;;6211445;23;20013;-94
2022/03/21 09:30:55;;;;;;;21.33;17.58;;;14.20;54.50;;;;;;6162413;23;20350;-94
2022/03/21 09:33:20;;;;;;;21.50;16.58;;;14.30;55.30;;;;;;6186500;23;20398;-94
2022/03/21 09:35:47;;;;;;;26.85;17.73;;;14.40;55.80;;;;;;6188246;23;20021;-94
2022/03/21 09:38:14;;;;;;;24.38;18.17;;;14.60;55.80;;;;;;6161569;23;20021;-94
2022/03/21 09:40:44;;;;;;;22.92;17.58;;;14.70;54.50;;;;;;6187985;23;20013;-95
2022/03/21 09:43:29;;;;;;;23.33;19.20;;;14.80;53.70;;;;;;6188443;23;20048;-95
2022/03/21 09:45:58;;;;;;;28.40;18.90;;;14.90;53.00;;;;;;6187494;23;20357;-94
2022/03/21 09:48:26;;;;;;;24.73;19.42;;;14.90;52.20;;;;;;6187657;23;20017;-95
2022/03/21 09:50:52;;;;;;;24.48;17.92;;;15.00;52.90;;;;;;6187842;23;20039;-95
2022/03/21 09:53:19;;;;;;;23.08;17.80;;;15.10;53.30;;;;;;6186209;23;20021;-94
2022/03/21 09:55:46;;;;;;;26.35;19.08;;;15.20;52.90;;;;;;6186342;23;20096;-94
2022/03/21 09:58:12;;;;;;;21.90;17.65;;;15.30;52.50;;;;;;6185945;23;20024;-93
2022/03/21 10:00:43;;;;;;;27.75;19.50;;;15.40;53.00;;;;;;6186212;23;20020;-93
2022/03/21 10:03:09;;;;;;;24.15;18.27;;;15.60;52.50;;;;;;6186590;23;20021;-94
2022/03/21 10:05:44;;;;;;;23.67;18.48;;;15.70;52.50;;;;;;6187392;23;20013;-95
2022/03/21 10:08:28;;;;;;;24.95;19.25;;;15.80;52.10;;;;;;6212978;23;20012;-89
2022/03/21 10:10:55;;;;;;;;;;;15.90;51.40;;;;;;6212821;23;20028;-88
2022/03/21 10:13:23;;;;;;;23.45;18.40;;;16.00;52.40;;;;;;6198291;23;19923;-93
2022/03/21 10:15:49;;;;;;;20.60;17.90;;;16.20;51.70;;;;;;6186320;23;20013;-93
2022/03/21 10:18:16;;;;;;;21.73;16.85;;;16.20;51.20;;;;;;6188342;23;20017;-93
2022/03/21 10:20:41;;;;;;;22.92;17.63;;;16.30;50.20;;;;;;6161229;23;20017;-94
2022/03/21 10:23:23;;;;;;;27.45;18.55;;;16.30;50.20;;;;;;6187374;23;20028;-94
2022/03/21 10:25:49;;;;;;;19.95;17.05;;;16.50;49.60;;;;;;6187686;23;20044;-93
2022/03/21 10:28:35;;;;;;;21.17;16.52;;;16.50;49.60;;;;;;6185602;23;20100;-95
2022/03/21 10:31:03;;;;;;;20.55;17.35;;;16.70;49.60;;;;;;6191006;23;20023;-93
2022/03/21 10:33:28;;;;;;;22.20;18.15;;;16.70;49.60;;;;;;6191227;23;20067;-93
2022/03/21 10:35:54;;;;;;;26.10;18.98;;;16.80;48.10;;;;;;6191147;23;20020;-94
2022/03/21 10:38:31;;;;;;;20.83;18.15;;;16.80;46.40;;;;;;6217587;23;20044;-93
2022/03/21 10:40:57;;;;;;;23.73;18.15;;;16.80;46.60;;;;;;6166657;23;20055;-93
2022/03/21 10:43:23;;;;;;;21.67;17.35;;;16.70;46.30;;;;;;6193056;23;20440;-94
2022/03/21 10:45:54;;;;;;;20.38;17.45;;;16.70;46.20;;;;;;6193325;23;20016;-94
2022/03/21 10:48:40;;;;;;;20.50;17.27;;;16.70;47.10;;;;;;6219942;23;20044;-94
2022/03/21 10:51:07;;;;;;;19.27;16.88;;;16.80;47.30;;;;;;6193091;23;20099;-94
2022/03/21 10:53:40;;;;;;;22.52;17.63;;;16.80;47.10;;;;;;6193466;23;20099;-94
2022/03/21 10:56:09;;;;;;;19.75;17.48;;;16.80;47.20;;;;;;6193124;23;20060;-94
2022/03/21 11:02:19;;;;;;;21.38;17.13;;;16.90;46.40;;;;;;6219196;23;20012;-94
2022/03/21 11:04:45;;;;;;;22.30;17.98;;;16.90;45.20;;;;;;6219146;23;20024;-95
2022/03/21 11:07:12;;;;;;;21.08;17.00;;;16.90;44.50;;;;;;6193539;23;20009;-94
2022/03/21 11:09:42;;;;;;;21.58;17.45;;;17.00;43.40;;;;;;6220540;23;20021;-93
2022/03/21 11:12:09;;;;;;;18.88;16.65;;;17.00;43.40;;;;;;6193368;23;20525;-93
2022/03/21 11:14:38;;;;;;;21.08;17.55;;;17.10;43.10;;;;;;6193924;23;20013;-95
2022/03/21 11:17:05;;;;;;;21.00;17.63;;;17.00;42.00;;;;;;6201810;23;20020;-94
2022/03/21 11:19:31;;;;;;;20.92;16.63;;;17.10;41.60;;;;;;6200955;23;20040;-93
2022/03/21 11:21:58;;;;;;;19.70;16.15;;;17.00;42.60;;;;;;6196115;23;20024;-94
2022/03/21 11:24:24;;;;;;;19.83;16.80;;;16.90;42.60;;;;;;6194306;23;20020;-94
2022/03/21 11:27:14;;;;;;;20.38;16.67;;;16.90;42.00;;;;;;6193270;23;20016;-94
2022/03/21 11:30:17;;;;;;;20.20;16.45;;;17.00;41.70;;;;;;6193386;23;20012;-95
2022/03/21 11:32:54;;;;;;;18.40;14.88;;;17.00;41.10;;;;;;6168899;23;20090;-95
2022/03/21 11:35:28;;;;;;;19.60;16.02;;;17.00;41.90;;;;;;6220871;23;20016;-94
2022/03/21 11:37:57;;;;;;;19.52;16.60;;;17.00;40.60;;;;;;6193754;23;20471;-94
2022/03/21 11:40:29;;;;;;;20.77;17.00;;;17.00;40.70;;;;;;6192991;23;20009;-94
2022/03/21 11:43:16;;;;;;;20.23;17.13;;;16.90;40.80;;;;;;6192691;23;20115;-95
2022/03/21 11:45:42;;;;;;;18.77;15.73;;;16.90;40.00;;;;;;6192857;23;20063;-94
2022/03/21 11:48:17;;;;;;;16.55;14.38;;;16.80;40.20;;;;;;6219687;23;20008;-94
2022/03/21 11:50:44;;;;;;;21.13;15.82;;;16.80;41.80;;;;;;6193073;23;20020;-94
2022/03/21 11:53:11;;;;;;;19.90;15.70;;;16.90;42.40;;;;;;6219193;23;20044;-94
2022/03/21 11:55:44;;;;;;;21.27;16.13;;;16.90;42.00;;;;;;6193214;23;20013;-95
2022/03/21 12:01:51;;;;;;;20.33;16.67;;;17.00;41.10;;;;;;6219427;23;20019;-94
2022/03/21 12:04:30;;;;;;;19.10;16.23;;;17.00;40.70;;;;;;6220030;23;20016;-94
2022/03/21 12:07:14;;;;;;;18.52;15.45;;;17.00;40.50;;;;;;6193506;23;20508;-94
2022/03/21 12:09:48;;;;;;;22.65;17.63;;;17.00;40.30;;;;;;6219915;23;20023;-95
2022/03/21 12:12:53;;;;;;;18.13;15.18;;;17.10;39.80;;;;;;6192785;23;20841;-94
2022/03/21 12:15:30;;;;;;;17.45;14.95;;;17.10;40.00;;;;;;6193069;23;20020;-94
2022/03/21 12:17:56;;;;;;;16.65;13.80;;;17.20;40.90;;;;;;6219383;23;20020;-93
2022/03/21 12:20:23;;;;;;;21.95;16.88;;;17.20;40.50;;;;;;6168457;23;20021;-94
2022/03/21 12:22:49;;;;;;;18.15;14.98;;;17.30;40.70;;;;;;6192934;23;20008;-94
2022/03/21 12:25:27;;;;;;;20.40;16.65;;;17.30;41.20;;;;;;6192417;23;20017;-94
2022/03/21 12:28:19;;;;;;;18.30;15.25;;;17.30;40.50;;;;;;6219622;23;20056;-94
2022/03/21 12:30:48;;;;;;;17.65;15.10;;;17.40;41.40;;;;;;6167975;23;20043;-94
2022/03/21 12:33:14;;;;;;;20.85;15.80;;;17.40;41.50;;;;;;6193114;23;20052;-94
2022/03/21 12:35:43;;;;;;;21.65;16.60;;;17.40;40.90;;;;;;6167988;23;20023;-94
2022/03/21 12:38:38;;;;;;;23.35;17.38;;;17.40;40.80;;;;;;6193421;23;20016;-94
2022/03/21 12:41:08;;;;;;;18.88;15.98;;;17.40;39.90;;;;;;6188339;23;20088;-93
2022/03/21 12:43:46;;;;;;;17.60;15.10;;;17.30;39.80;;;;;;6219241;23;20024;-94
2022/03/21 12:46:14;;;;;;;20.55;16.27;;;17.30;40.10;;;;;;6168278;23;20152;-94
2022/03/21 12:48:58;;;;;;;17.90;15.00;;;17.20;40.30;;;;;;6197147;23;20096;-93
2022/03/21 12:51:29;;;;;;;20.77;16.33;;;17.20;40.50;;;;;;6207011;23;20055;-93
2022/03/21 12:53:58;;;;;;;20.98;16.00;;;17.20;40.10;;;;;;6208875;23;20028;-94
2022/03/21 12:56:25;;;;;;;20.10;15.70;;;17.20;40.80;;;;;;6193373;23;20486;-93
2022/03/21 12:58:56;;;;;;;23.35;17.77;;;17.20;40.90;;;;;;6192666;23;20021;-92
2022/03/21 13:01:22;;;;;;;21.92;16.67;;;17.20;40.50;;;;;;6167114;23;20024;-94
2022/03/21 13:03:55;;;;;;;20.70;15.55;;;17.20;39.30;;;;;;6218738;23;20433;-92
2022/03/21 13:11:38;;;;;;;20.92;17.90;;;17.20;39.00;;;;;;6192215;23;20052;-94
2022/03/21 13:14:13;;;;;;;21.38;16.60;;;17.20;39.60;;;;;;6167780;23;20176;-94
2022/03/21 13:16:45;;;;;;;19.95;15.50;;;17.10;39.90;;;;;;6167823;23;20016;-94
2022/03/21 13:19:16;;;;;;;21.13;17.08;;;17.00;40.40;;;;;;6219080;23;20102;-93
2022/03/21 13:21:42;;;;;;;23.33;17.20;;;17.20;40.00;;;;;;6218892;23;20021;-93